Time;durP1;ratioP1;P1;durP2;ratioP2;P2;SDS_P1;SDS_P2;PMS_P1;PMS_P2;Temp;Humidity;BMP_temperature;BMP_pressure;BME280_temperature;BME280_humidity;BME280_pressure;Samples;Min_cycle;Max_cycle;Signal;HPM_P1;HPM_P2
2023/01/18 00:00:49;;;;;;;24.10;13.55;;;;;;;-1.54;74.27;97973.19;10176855;29;20112;-77
2023/01/18 00:05:54;;;;;;;29.08;13.15;;;;;;;-1.63;74.26;97974.69;10177426;29;20075;-77
2023/01/18 00:11:02;;;;;;;29.35;14.95;;;;;;;-1.62;74.45;97970.25;10176501;29;20055;-76
2023/01/18 00:16:09;;;;;;;26.63;14.57;;;;;;;-1.60;74.65;97976.28;10175306;29;20044;-75
2023/01/18 00:21:12;;;;;;;25.40;10.95;;;;;;;-1.54;74.50;97969.72;10193179;29;20050;-76
2023/01/18 00:26:16;;;;;;;29.85;14.25;;;;;;;-1.44;74.55;97970.78;10181663;29;20073;-77
2023/01/18 00:31:21;;;;;;;31.88;15.00;;;;;;;-1.50;74.12;97966.78;10199638;29;20068;-77
2023/01/18 00:36:24;;;;;;;34.13;15.43;;;;;;;-1.61;73.80;97969.34;10183561;29;20416;-76
2023/01/18 00:41:27;;;;;;;27.10;13.90;;;;;;;-1.62;74.19;97973.75;10190285;29;20115;-77
2023/01/18 00:46:31;;;;;;;24.40;12.90;;;;;;;-1.63;73.88;97961.53;10182281;29;20483;-76
2023/01/18 00:51:34;;;;;;;22.95;12.85;;;;;;;-1.60;73.94;97973.63;10198822;29;20050;-77
2023/01/18 00:56:37;;;;;;;27.60;13.85;;;;;;;-1.60;73.95;97973.63;10214606;29;20078;-77
2023/01/18 01:01:41;;;;;;;25.05;13.32;;;;;;;-1.65;73.75;97970.47;10191203;29;20051;-76
2023/01/18 01:06:44;;;;;;;27.98;15.23;;;;;;;-1.79;73.36;97966.16;10207812;29;20047;-78
2023/01/18 01:27:51;;;;;;;27.63;13.73;;;;;;;-1.79;74.04;97976.69;10195090;29;20330;-77
2023/01/18 01:32:56;;;;;;;23.85;12.98;;;;;;;-1.88;73.66;97978.16;10204898;29;20051;-77
2023/01/18 01:37:59;;;;;;;29.33;14.05;;;;;;;-2.07;73.52;97978.56;10205232;29;20044;-78
2023/01/18 01:43:02;;;;;;;33.72;14.32;;;;;;;-2.11;73.29;97987.63;10184825;29;20079;-77
2023/01/18 01:48:09;;;;;;;25.17;12.07;;;;;;;-2.13;73.75;97999.19;10173022;29;20491;-76
2023/01/18 01:53:12;;;;;;;29.77;13.18;;;;;;;-1.99;74.21;97987.75;10189858;29;20067;-77
2023/01/18 01:58:21;;;;;;;30.35;13.43;;;;;;;-2.01;73.56;97994.91;10215184;29;20106;-77
2023/01/18 02:03:26;;;;;;;25.02;14.02;;;;;;;-2.27;73.44;98001.91;10194092;29;20044;-77
2023/01/18 02:08:28;;;;;;;30.77;15.23;;;;;;;-2.29;73.80;98000.22;10172009;29;20099;-77
2023/01/18 02:13:31;;;;;;;30.55;13.90;;;;;;;-2.19;74.16;97995.19;10194335;29;20044;-77
2023/01/18 02:18:46;;;;;;;30.13;13.82;;;;;;;-2.15;74.05;97994.03;10198891;29;20045;-77
2023/01/18 02:24:16;;;;;;;32.28;15.52;;;;;;;-2.09;73.96;97992.78;10174871;29;20071;-76
2023/01/18 02:29:32;;;;;;;41.45;15.68;;;;;;;-2.08;73.93;97992.69;10186895;29;20384;-78
2023/01/18 02:34:40;;;;;;;26.98;14.40;;;;;;;-2.11;73.73;98005.22;10172408;29;20464;-77
2023/01/18 02:39:55;;;;;;;35.80;15.30;;;;;;;-2.40;74.36;97996.63;10171480;29;20071;-78
2023/01/18 02:50:26;;;;;;;34.55;15.35;;;;;;;-2.21;74.14;98009.38;10171164;29;20111;-77
2023/01/18 02:55:38;;;;;;;35.78;15.90;;;;;;;-2.12;74.02;98009.59;10170221;29;20060;-78
2023/01/18 03:00:48;;;;;;;32.95;15.20;;;;;;;-2.14;73.79;98013.28;10210114;29;20048;-76
2023/01/18 03:05:57;;;;;;;26.33;14.13;;;;;;;-2.26;73.31;98011.47;10197309;29;20114;-76
2023/01/18 03:11:02;;;;;;;25.05;13.57;;;;;;;-2.47;72.86;98017.19;10179036;29;20139;-77
2023/01/18 03:16:12;;;;;;;24.02;13.73;;;;;;;-2.56;72.99;98017.78;10197119;29;20426;-78
2023/01/18 03:21:16;;;;;;;32.30;15.10;;;;;;;-2.55;73.10;98028.22;10186766;29;20095;-77
2023/01/18 03:26:21;;;;;;;31.67;15.48;;;;;;;-2.62;73.24;98036.59;10200712;29;20052;-77
2023/01/18 03:36:58;;;;;;;34.15;15.57;;;;;;;-2.73;74.44;98042.53;10177911;29;20044;-77
2023/01/18 03:42:05;;;;;;;36.80;16.30;;;;;;;-2.65;74.43;98045.53;10177169;29;20313;-77
2023/01/18 03:47:10;;;;;;;31.00;15.43;;;;;;;-2.57;74.72;98052.91;10194787;29;20075;-77
2023/01/18 03:52:19;;;;;;;27.83;15.20;;;;;;;-2.54;74.81;98053.56;10189172;29;20044;-77
2023/01/18 03:57:28;;;;;;;35.55;15.38;;;;;;;-2.68;74.64;98055.41;10187843;29;20048;-77
2023/01/18 04:02:32;;;;;;;28.75;15.25;;;;;;;-2.67;75.05;98057.91;10196968;29;20040;-77
2023/01/18 04:07:35;;;;;;;27.13;15.57;;;;;;;-2.63;74.85;98058.53;10197246;29;20051;-77
2023/01/18 04:12:38;;;;;;;29.48;15.57;;;;;;;-2.65;75.03;98056.03;10192330;29;20092;-77
2023/01/18 04:17:42;;;;;;;31.00;15.57;;;;;;;-2.60;74.98;98067.09;10188529;29;20052;-77
2023/01/18 04:22:51;;;;;;;27.48;15.18;;;;;;;-2.49;75.04;98061.16;10205730;29;20052;-77
2023/01/18 04:27:54;;;;;;;28.30;15.10;;;;;;;-2.43;75.23;98066.00;10197116;29;20044;-76
2023/01/18 04:32:58;;;;;;;25.13;14.35;;;;;;;-2.46;75.02;98068.84;10208291;29;20047;-76
2023/01/18 04:38:01;;;;;;;27.98;15.43;;;;;;;-2.49;74.48;98074.31;10196379;29;20123;-76
2023/01/18 04:43:04;;;;;;;34.15;15.23;;;;;;;-2.45;74.52;98080.19;10192126;29;20060;-76
2023/01/18 04:48:08;;;;;;;29.60;14.95;;;;;;;-2.51;74.36;98084.06;10176041;29;20048;-77
2023/01/18 04:53:11;;;;;;;26.75;13.40;;;;;;;-2.73;74.17;98093.31;10176049;29;20075;-77
2023/01/18 04:58:15;;;;;;;29.23;14.63;;;;;;;-2.62;74.78;98086.53;10189507;29;20048;-77
2023/01/18 05:03:19;;;;;;;27.17;13.77;;;;;;;-2.59;74.49;98099.47;10182146;29;20048;-77
2023/01/18 05:08:22;;;;;;;27.15;14.13;;;;;;;-2.50;74.67;98101.50;10175249;29;20107;-77
2023/01/18 05:13:25;;;;;;;27.17;13.70;;;;;;;-2.49;74.82;98108.47;10175886;29;20099;-77
2023/01/18 05:18:29;;;;;;;28.55;14.35;;;;;;;-2.43;74.60;98110.72;10222170;29;20056;-77
2023/01/18 05:23:32;;;;;;;27.95;15.00;;;;;;;-2.52;74.54;98121.81;10208951;29;20505;-77
2023/01/18 05:28:35;;;;;;;26.73;13.50;;;;;;;-2.50;74.34;98127.81;10190674;29;20048;-77
2023/01/18 05:33:40;;;;;;;28.42;14.77;;;;;;;-2.51;73.98;98119.06;10194337;29;20044;-76
2023/01/18 05:38:43;;;;;;;31.45;15.23;;;;;;;-2.48;74.03;98125.94;10194341;29;20089;-76
2023/01/18 05:43:46;;;;;;;28.77;15.10;;;;;;;-2.48;73.83;98136.44;10212172;29;20048;-76
2023/01/18 05:48:50;;;;;;;31.65;14.23;;;;;;;-2.59;73.76;98138.91;10184412;29;20054;-76
2023/01/18 05:53:53;;;;;;;27.55;14.43;;;;;;;-2.63;73.55;98147.91;10186864;29;20073;-77
2023/01/18 05:58:56;;;;;;;25.77;13.15;;;;;;;-2.62;73.52;98149.63;10209232;29;20050;-77
2023/01/18 06:04:00;;;;;;;26.15;13.80;;;;;;;-2.64;73.66;98148.84;10196055;29;20043;-77
2023/01/18 06:09:03;;;;;;;27.35;13.32;;;;;;;-2.68;73.63;98156.09;10193207;29;20124;-77
2023/01/18 06:14:06;;;;;;;33.10;14.75;;;;;;;-2.73;73.66;98166.88;10187403;29;20567;-77
2023/01/18 06:19:10;;;;;;;36.92;16.25;;;;;;;-2.67;73.62;98173.53;10201485;29;20052;-77
2023/01/18 06:24:13;;;;;;;27.98;14.20;;;;;;;-2.58;73.76;98172.13;10201190;29;20039;-77
2023/01/18 06:29:16;;;;;;;29.77;15.30;;;;;;;-2.66;73.19;98185.75;10189303;29;20048;-77
2023/01/18 06:34:20;;;;;;;34.10;15.00;;;;;;;-2.66;73.64;98190.16;10182157;29;20056;-76
2023/01/18 06:39:23;;;;;;;28.58;13.57;;;;;;;-2.70;73.66;98201.81;10183188;29;20052;-76
2023/01/18 06:44:26;;;;;;;28.50;14.13;;;;;;;-2.80;73.71;98214.66;10172762;29;20072;-77
2023/01/18 06:49:30;;;;;;;30.85;15.52;;;;;;;-2.84;73.80;98221.88;10185144;29;20511;-76
2023/01/18 06:54:33;;;;;;;31.10;15.35;;;;;;;-2.84;73.99;98227.13;10172448;29;20087;-76
2023/01/18 06:59:36;;;;;;;29.17;14.80;;;;;;;-2.80;73.75;98236.53;10175862;29;20047;-76
2023/01/18 07:04:43;;;;;;;27.92;14.82;;;;;;;-2.79;73.57;98242.63;10172058;29;20071;-77
2023/01/18 07:09:46;;;;;;;29.40;14.40;;;;;;;-2.92;73.67;98253.03;10186543;29;20048;-77
2023/01/18 07:14:49;;;;;;;29.95;14.90;;;;;;;-2.90;73.86;98266.09;10187330;29;20043;-77
2023/01/18 07:19:53;;;;;;;27.88;14.98;;;;;;;-2.87;73.65;98269.38;10192018;29;20452;-77
2023/01/18 07:24:56;;;;;;;33.72;16.65;;;;;;;-2.91;73.66;98273.09;10190739;29;20043;-76
2023/01/18 07:29:59;;;;;;;28.85;15.15;;;;;;;-2.85;73.40;98285.88;10193745;29;20044;-77
2023/01/18 07:35:04;;;;;;;29.67;15.20;;;;;;;-2.81;73.62;98291.78;10214870;29;20084;-77
2023/01/18 07:40:09;;;;;;;30.25;14.27;;;;;;;-2.78;73.28;98287.19;10187925;29;20059;-76
2023/01/18 07:45:12;;;;;;;39.40;16.45;;;;;;;-2.81;73.18;98303.16;10191972;29;20052;-76
2023/01/18 07:50:17;;;;;;;37.22;15.38;;;;;;;-2.77;72.96;98317.81;10212523;29;20043;-76
2023/01/18 07:55:20;;;;;;;34.28;15.48;;;;;;;-2.63;73.06;98316.13;10198726;29;20511;-76
2023/01/18 08:00:24;;;;;;;30.90;15.15;;;;;;;-2.60;72.63;98316.81;10180448;29;20082;-76
2023/01/18 08:05:28;;;;;;;34.35;14.65;;;;;;;-2.53;72.35;98326.00;10201824;29;20423;-76
2023/01/18 08:10:31;;;;;;;35.85;15.43;;;;;;;-2.42;72.56;98335.03;10192110;29;20051;-77
2023/01/18 08:15:35;;;;;;;29.48;15.10;;;;;;;-2.23;72.01;98334.75;10184294;29;20122;-77
2023/01/18 08:20:39;;;;;;;32.55;16.25;;;;;;;-2.04;71.94;98345.84;10182857;29;20043;-77
2023/01/18 08:25:42;;;;;;;31.42;14.70;;;;;;;-2.00;71.05;98355.25;10194839;29;20047;-76
2023/01/18 08:30:47;;;;;;;30.15;12.02;;;;;;;-1.93;71.10;98358.34;10199021;29;20043;-76
2023/01/18 08:35:51;;;;;;;52.83;26.00;;;;;;;-1.38;71.96;98367.19;10200448;29;20056;-77
2023/01/18 08:40:54;;;;;;;57.10;28.67;;;;;;;-0.75;71.55;98366.56;10198443;29;20055;-78
2023/01/18 08:45:58;;;;;;;17.30;10.90;;;;;;;-0.39;69.19;98365.03;10196950;29;20083;-77
2023/01/18 08:51:02;;;;;;;23.80;13.48;;;;;;;-0.42;67.82;98373.16;10195637;29;20047;-77
2023/01/18 08:56:06;;;;;;;24.42;13.35;;;;;;;-0.41;66.50;98388.00;10190788;29;20043;-77
2023/01/18 09:01:09;;;;;;;25.40;14.32;;;;;;;-0.39;66.69;98394.03;10199334;29;20048;-77
2023/01/18 09:06:15;;;;;;;25.08;14.23;;;;;;;-0.26;66.53;98399.34;10194102;29;20044;-77
2023/01/18 09:11:18;;;;;;;27.88;14.93;;;;;;;-0.16;66.15;98405.69;10187995;29;20399;-77
2023/01/18 09:16:22;;;;;;;33.58;15.82;;;;;;;0.03;66.14;98400.81;10208844;29;20414;-77
2023/01/18 09:21:27;;;;;;;32.63;16.17;;;;;;;0.38;66.23;98411.56;10201003;29;20568;-77
2023/01/18 09:26:30;;;;;;;36.75;17.30;;;;;;;0.89;64.71;98413.22;10175708;29;20056;-76
2023/01/18 09:31:33;;;;;;;34.00;16.90;;;;;;;1.35;64.63;98417.78;10161092;29;20138;-76
2023/01/18 09:43:15;;;;;;;38.92;18.27;;;;;;;1.40;63.61;98433.31;10203070;29;20111;-78
2023/01/18 09:48:27;;;;;;;37.20;18.20;;;;;;;1.20;64.49;98448.84;10208364;29;20051;-77
2023/01/18 09:53:47;;;;;;;36.78;19.73;;;;;;;0.87;64.86;98451.31;10252864;23;20055;-76
2023/01/18 09:59:03;;;;;;;34.33;18.55;;;;;;;0.97;65.41;98444.41;10198078;29;20067;-76
2023/01/18 10:04:15;;;;;;;32.00;18.48;;;;;;;0.74;65.39;98456.59;10193012;29;20044;-77
2023/01/18 10:09:22;;;;;;;33.00;17.10;;;;;;;0.90;65.37;98451.06;10182033;29;20558;-76
2023/01/18 10:14:41;;;;;;;31.38;15.38;;;;;;;0.65;65.64;98457.28;10177059;29;20159;-76
2023/01/18 10:19:44;;;;;;;36.33;17.50;;;;;;;0.66;66.19;98459.81;10182348;29;20040;-75
2023/01/18 10:24:54;;;;;;;31.55;16.17;;;;;;;0.80;66.25;98467.59;10192831;29;20413;-75
2023/01/18 10:30:11;;;;;;;33.38;17.08;;;;;;;1.18;64.88;98457.84;10196293;29;20127;-76
2023/01/18 10:35:22;;;;;;;27.00;15.65;;;;;;;1.08;64.46;98464.78;10178684;29;20068;-75
2023/01/18 10:40:25;;;;;;;30.90;17.05;;;;;;;0.86;64.62;98471.59;10192083;29;20044;-75
2023/01/18 10:45:32;;;;;;;31.98;15.30;;;;;;;0.78;65.62;98473.94;10196282;29;20515;-76
2023/01/18 10:50:38;;;;;;;30.25;16.80;;;;;;;1.05;64.40;98477.25;10200116;29;20040;-75
2023/01/18 10:55:50;;;;;;;34.78;17.17;;;;;;;1.46;62.37;98481.34;10187019;29;20055;-76
2023/01/18 11:00:54;;;;;;;30.30;16.75;;;;;;;1.66;61.35;98484.31;10167133;29;20069;-76
2023/01/18 11:06:06;;;;;;;35.95;16.80;;;;;;;2.37;60.99;98479.81;10188853;29;20036;-75
2023/01/18 11:11:17;;;;;;;29.13;14.75;;;;;;;2.21;59.42;98481.94;10168211;29;20044;-75
2023/01/18 11:16:22;;;;;;;30.42;15.85;;;;;;;2.30;59.69;98486.53;10184826;29;20107;-75
2023/01/18 11:21:30;;;;;;;31.75;16.25;;;;;;;2.53;59.77;98484.75;10197177;29;20066;-76
2023/01/18 11:26:34;;;;;;;21.63;12.77;;;;;;;1.61;59.83;98491.75;10216505;29;20063;-75
2023/01/18 11:31:45;;;;;;;29.60;12.95;;;;;;;1.99;59.97;98488.88;10201302;29;20064;-75
2023/01/18 11:36:48;;;;;;;27.90;13.88;;;;;;;1.87;61.10;98493.28;10172417;29;20178;-75
2023/01/18 11:41:53;;;;;;;27.15;13.93;;;;;;;1.61;61.41;98492.56;10202244;29;20044;-77
2023/01/18 11:47:02;;;;;;;27.15;12.65;;;;;;;0.90;62.86;98480.16;10201973;29;20086;-76
2023/01/18 11:52:17;;;;;;;27.27;15.73;;;;;;;1.40;62.96;98483.56;10194865;29;20040;-75
2023/01/18 11:57:20;;;;;;;26.73;15.20;;;;;;;2.31;60.22;98478.47;10197134;29;20139;-75
2023/01/18 12:02:44;;;;;;;22.98;12.82;;;;;;;2.05;59.54;98482.25;10187088;29;20099;-76
2023/01/18 12:07:56;;;;;;;23.45;12.80;;;;;;;2.43;59.33;98489.91;10176742;29;20095;-75
2023/01/18 12:13:22;;;;;;;21.58;12.27;;;;;;;2.42;59.11;98482.09;10192698;29;20044;-75
2023/01/18 12:18:41;;;;;;;24.23;13.35;;;;;;;2.17;58.89;98487.47;10169256;29;20048;-76
2023/01/18 12:23:59;;;;;;;28.75;13.98;;;;;;;2.33;59.38;98491.56;10198651;29;20164;-76
2023/01/18 12:29:14;;;;;;;25.42;13.43;;;;;;;2.53;58.82;98492.72;10195460;29;20043;-77
2023/01/18 12:34:22;;;;;;;27.23;14.27;;;;;;;2.88;58.24;98483.81;10166404;28;20142;-76
2023/01/18 12:39:44;;;;;;;28.63;14.05;;;;;;;2.75;58.56;98490.09;10212062;29;20067;-75
2023/01/18 12:45:01;;;;;;;24.27;13.38;;;;;;;2.70;58.38;98486.94;10207017;29;20075;-76
2023/01/18 12:50:14;;;;;;;20.70;11.25;;;;;;;2.15;59.07;98491.19;10209565;29;20086;-75
2023/01/18 12:55:21;;;;;;;23.27;12.07;;;;;;;1.97;60.50;98489.94;10212560;29;20040;-76
2023/01/18 13:00:31;;;;;;;18.02;8.40;;;;;;;2.02;59.38;98495.75;10174886;29;20079;-76
2023/01/18 13:05:49;;;;;;;16.95;9.65;;;;;;;1.57;60.68;98506.16;10193753;29;20106;-75
2023/01/18 13:10:56;;;;;;;16.77;10.32;;;;;;;1.72;60.27;98512.97;10174580;29;20040;-76
2023/01/18 13:16:08;;;;;;;24.35;12.63;;;;;;;2.27;59.72;98513.25;10187549;29;20036;-76
2023/01/18 13:21:20;;;;;;;24.98;12.15;;;;;;;2.32;59.15;98508.44;10200617;29;20503;-76
2023/01/18 13:26:28;;;;;;;21.90;13.53;;;;;;;2.39;59.11;98510.53;10180783;29;20095;-76
2023/01/18 13:31:31;;;;;;;22.17;12.98;;;;;;;2.99;57.66;98508.53;10186277;29;20131;-75
2023/01/18 13:36:45;;;;;;;20.30;12.13;;;;;;;3.19;56.21;98509.56;10203866;29;20133;-74
2023/01/18 13:42:24;;;;;;;21.30;11.57;;;;;;;3.66;55.88;98507.53;10196553;29;20044;-74
2023/01/18 13:47:47;;;;;;;17.90;10.20;;;;;;;3.78;55.14;98510.97;10156647;29;20052;-74
2023/01/18 13:53:17;;;;;;;22.05;12.13;;;;;;;3.54;56.12;98512.97;10195193;29;20100;-75
2023/01/18 13:58:25;;;;;;;22.30;11.65;;;;;;;3.17;57.30;98513.31;10177551;29;20103;-75
2023/01/18 14:03:30;;;;;;;24.95;13.57;;;;;;;3.82;54.95;98515.06;10165639;29;20075;-76
2023/01/18 14:08:36;;;;;;;23.48;12.80;;;;;;;3.44;56.16;98516.41;10136069;29;20138;-76
2023/01/18 14:14:07;;;;;;;23.75;13.30;;;;;;;3.06;57.15;98525.63;10155319;29;20061;-76
2023/01/18 14:19:16;;;;;;;25.95;12.65;;;;;;;3.31;56.79;98533.44;10143508;29;20044;-75
2023/01/18 14:24:39;;;;;;;17.63;10.70;;;;;;;2.84;57.88;98542.38;10149598;29;20813;-75
2023/01/18 14:29:47;;;;;;;19.35;11.95;;;;;;;2.61;58.37;98552.16;10136312;29;20047;-76
2023/01/18 14:34:57;;;;;;;12.43;7.45;;;;;;;2.33;59.23;98548.09;10142524;29;20048;-77
2023/01/18 14:40:16;;;;;;;18.15;10.75;;;;;;;2.26;59.92;98559.25;10148427;29;20055;-77
2023/01/18 14:45:23;;;;;;;20.35;12.00;;;;;;;2.74;58.81;98556.47;10142359;29;20071;-76
2023/01/18 14:50:31;;;;;;;17.40;11.15;;;;;;;2.49;58.90;98568.94;10134645;29;20555;-75
2023/01/18 14:55:36;;;;;;;18.67;10.90;;;;;;;2.05;60.39;98569.66;10141443;29;20415;-75
2023/01/18 15:00:48;;;;;;;21.40;11.13;;;;;;;1.89;61.51;98586.69;10156766;29;20558;-77
2023/01/18 15:05:56;;;;;;;;;;;;;;;1.72;61.53;98603.78;10157212;29;20044;-75
2023/01/18 15:11:02;;;;;;;25.17;11.68;;;;;;;1.62;62.29;98608.09;10149110;29;19931;-76
2023/01/18 15:16:06;;;;;;;13.90;6.70;;;;;;;0.89;64.55;98614.13;10144886;29;20059;-75
2023/01/18 15:21:16;;;;;;;23.30;12.52;;;;;;;1.10;64.01;98621.50;10157420;29;21119;-75
2023/01/18 15:26:43;;;;;;;28.63;13.77;;;;;;;0.78;64.95;98619.31;10155249;29;20044;-74
2023/01/18 15:31:51;;;;;;;28.63;12.30;;;;;;;0.75;65.25;98623.00;10149549;29;20435;-75
2023/01/18 15:36:56;;;;;;;27.40;14.05;;;;;;;0.48;65.91;98635.47;10153011;29;20056;-75
2023/01/18 15:42:06;;;;;;;23.35;14.10;;;;;;;0.65;65.98;98626.38;10158301;29;20056;-75
2023/01/18 15:47:22;;;;;;;24.40;12.77;;;;;;;0.47;66.22;98639.06;10144520;29;20422;-77
2023/01/18 15:52:39;;;;;;;26.02;13.82;;;;;;;0.36;67.19;98642.41;10147399;29;20063;-75
2023/01/18 15:57:55;;;;;;;29.70;14.57;;;;;;;0.38;66.46;98638.72;10149145;29;20075;-75
2023/01/18 16:02:59;;;;;;;23.80;13.38;;;;;;;0.25;67.06;98643.13;10152155;29;20060;-75
2023/01/18 16:08:16;;;;;;;27.30;14.80;;;;;;;0.26;66.99;98644.81;10157564;29;20195;-75
2023/01/18 16:13:35;;;;;;;31.30;14.63;;;;;;;0.19;67.42;98643.50;10168399;29;20139;-76
2023/01/18 16:18:41;;;;;;;25.65;14.15;;;;;;;0.16;67.63;98656.91;10152277;29;20036;-75
2023/01/18 16:23:49;;;;;;;29.23;14.57;;;;;;;0.14;67.77;98664.97;10160775;29;20549;-78
2023/01/18 16:28:53;;;;;;;30.45;17.58;;;;;;;0.09;67.43;98656.47;10159532;29;21052;-77
2023/01/18 16:33:56;;;;;;;25.02;14.88;;;;;;;0.01;67.51;98665.84;10159332;29;21188;-77
2023/01/18 16:38:59;;;;;;;25.23;14.45;;;;;;;-0.06;67.80;98670.66;10159816;29;20066;-77
2023/01/18 16:44:04;;;;;;;28.13;13.40;;;;;;;-0.13;68.31;98669.38;10164779;29;20066;-77
2023/01/18 16:49:11;;;;;;;23.38;13.02;;;;;;;-0.16;67.99;98674.88;10170005;29;20632;-76
2023/01/18 16:54:14;;;;;;;27.85;14.00;;;;;;;-0.22;68.07;98676.09;10160134;29;20051;-77
2023/01/18 16:59:21;;;;;;;28.27;13.48;;;;;;;-0.21;68.60;98690.97;10152163;29;20047;-77
2023/01/18 17:04:25;;;;;;;25.40;11.88;;;;;;;-0.16;68.58;98698.63;10144594;29;20032;-76
2023/01/18 17:09:28;;;;;;;18.02;10.02;;;;;;;-0.20;68.71;98695.31;10122499;29;20059;-78
2023/01/18 17:14:37;;;;;;;24.33;13.50;;;;;;;-0.20;68.65;98699.75;10147838;29;20067;-78
2023/01/18 17:19:40;;;;;;;24.63;13.15;;;;;;;-0.16;68.65;98702.09;10150078;29;20146;-78
2023/01/18 17:24:43;;;;;;;27.75;13.32;;;;;;;-0.27;68.85;98699.28;10161754;29;20059;-78
2023/01/18 17:29:48;;;;;;;23.02;12.77;;;;;;;-0.14;68.61;98708.13;10159048;29;20054;-77
2023/01/18 17:34:50;;;;;;;24.98;14.13;;;;;;;-0.16;68.63;98725.00;10151333;29;20167;-77
2023/01/18 17:39:53;;;;;;;24.13;12.88;;;;;;;-0.20;68.42;98734.06;10155847;29;20056;-77
2023/01/18 17:45:15;;;;;;;26.52;14.07;;;;;;;-0.25;68.71;98726.41;10149968;29;21404;-78
2023/01/18 17:50:23;;;;;;;25.65;14.15;;;;;;;-0.31;68.57;98738.19;10158011;29;20055;-77
2023/01/18 17:55:26;;;;;;;26.63;13.88;;;;;;;-0.28;68.42;98753.00;10133854;29;20047;-77
2023/01/18 18:00:37;;;;;;;33.88;17.10;;;;;;;-0.37;68.75;98754.41;10147609;29;20496;-77
2023/01/18 18:05:40;;;;;;;33.30;16.38;;;;;;;-0.45;68.74;98751.41;10154118;29;20557;-77
2023/01/18 18:10:43;;;;;;;28.10;14.40;;;;;;;-0.48;69.24;98748.97;10152320;29;20082;-77
2023/01/18 18:15:48;;;;;;;28.63;14.23;;;;;;;-0.44;69.15;98765.44;10142266;29;20208;-78
2023/01/18 18:20:57;;;;;;;24.73;13.60;;;;;;;-0.42;69.01;98768.84;10151964;29;20047;-78
2023/01/18 18:26:00;;;;;;;23.52;13.43;;;;;;;-0.42;69.31;98777.59;10146403;29;20560;-78
2023/01/18 18:31:04;;;;;;;24.73;11.82;;;;;;;-0.38;69.25;98791.47;10156299;29;20048;-77
2023/01/18 18:36:07;;;;;;;30.13;14.23;;;;;;;-0.41;69.17;98792.50;10160051;29;20054;-78
2023/01/18 18:41:10;;;;;;;19.70;9.60;;;;;;;-0.46;69.37;98789.28;10164521;29;20048;-78
2023/01/18 18:46:15;;;;;;;28.50;14.07;;;;;;;-0.19;68.17;98802.59;10152620;29;20107;-77
2023/01/18 18:51:18;;;;;;;27.50;8.18;;;;;;;-0.60;68.85;98811.22;10155639;29;20051;-77
2023/01/18 18:56:22;;;;;;;20.92;11.25;;;;;;;-0.50;69.14;98806.22;10144909;29;20060;-77
2023/01/18 19:01:28;;;;;;;22.52;10.60;;;;;;;-0.10;67.02;98823.13;10137406;29;20061;-77
2023/01/18 19:06:31;;;;;;;14.90;8.70;;;;;;;-0.59;68.65;98814.72;10148280;29;20080;-77
2023/01/18 19:11:33;;;;;;;27.10;10.98;;;;;;;-0.21;67.86;98807.09;10156938;28;20079;-77
2023/01/18 19:16:42;;;;;;;20.60;8.80;;;;;;;-0.38;67.60;98805.50;10148428;29;21123;-77
2023/01/18 19:21:47;;;;;;;22.65;10.20;;;;;;;-0.53;68.12;98811.69;10141071;29;20048;-76
2023/01/18 19:26:50;;;;;;;17.45;7.38;;;;;;;-0.50;67.69;98804.44;10150513;29;20082;-77
2023/01/18 19:31:55;;;;;;;18.27;9.25;;;;;;;-0.58;67.91;98804.03;10150375;29;20052;-77
2023/01/18 19:36:57;;;;;;;11.38;6.00;;;;;;;-0.72;68.39;98807.50;10143323;29;20075;-78
2023/01/18 19:42:00;;;;;;;19.13;9.13;;;;;;;-0.64;68.48;98799.16;10135378;29;20214;-76
2023/01/18 19:47:04;;;;;;;15.93;8.55;;;;;;;-0.79;68.07;98805.34;10155567;29;20052;-78
2023/01/18 19:52:07;;;;;;;21.00;8.88;;;;;;;-0.52;67.42;98808.13;10158252;29;20474;-76
2023/01/18 19:57:10;;;;;;;17.48;8.38;;;;;;;-0.62;67.87;98821.00;10149333;29;20048;-78
2023/01/18 20:02:14;;;;;;;19.10;11.27;;;;;;;-0.43;67.54;98820.75;10142067;29;20047;-77
2023/01/18 20:07:18;;;;;;;13.27;6.68;;;;;;;-0.48;67.27;98821.97;10150197;29;20052;-77
2023/01/18 20:12:20;;;;;;;21.45;10.23;;;;;;;-0.76;68.03;98832.38;10151453;29;20447;-76
2023/01/18 20:17:25;;;;;;;20.45;10.70;;;;;;;-0.67;68.66;98822.22;10151782;29;20080;-77
2023/01/18 20:22:28;;;;;;;22.40;10.55;;;;;;;-0.99;68.73;98844.28;10150730;29;20859;-77
2023/01/18 20:27:30;;;;;;;16.80;8.52;;;;;;;-0.90;69.12;98840.25;10153892;29;21310;-78
2023/01/18 20:32:35;;;;;;;18.45;9.60;;;;;;;-0.55;68.09;98843.47;10154771;29;20631;-77
2023/01/18 20:37:37;;;;;;;19.40;10.40;;;;;;;-0.80;68.11;98836.13;10151128;29;20056;-77
2023/01/18 20:42:40;;;;;;;19.98;10.05;;;;;;;-0.58;68.22;98838.34;10139522;29;20044;-76
2023/01/18 20:47:44;;;;;;;18.27;10.10;;;;;;;-0.66;68.32;98840.56;10154293;29;20094;-77
2023/01/18 20:52:47;;;;;;;12.82;7.07;;;;;;;-0.44;67.48;98842.78;10158111;29;20059;-76
2023/01/18 20:57:51;;;;;;;16.88;9.85;;;;;;;-0.51;66.99;98841.47;10140407;29;20156;-76
2023/01/18 21:02:55;;;;;;;19.52;8.75;;;;;;;-0.44;67.55;98855.13;10140494;29;20048;-76
2023/01/18 21:07:58;;;;;;;17.88;10.88;;;;;;;-0.59;67.34;98843.72;10152063;29;20052;-76
2023/01/18 21:13:02;;;;;;;15.00;8.70;;;;;;;-0.63;67.81;98850.97;10151429;29;20051;-75
2023/01/18 21:18:06;;;;;;;18.52;10.40;;;;;;;-0.75;68.40;98860.44;10155885;29;20059;-76
2023/01/18 21:23:09;;;;;;;11.20;6.88;;;;;;;-0.53;67.04;98862.66;10148707;29;20052;-78
2023/01/18 21:28:12;;;;;;;11.55;5.75;;;;;;;-0.82;68.48;98855.63;10150526;29;20712;-78
2023/01/18 21:33:17;;;;;;;17.75;6.45;;;;;;;-0.73;68.23;98855.09;10152274;29;20059;-76
2023/01/18 21:38:22;;;;;;;8.10;5.68;;;;;;;-0.63;68.66;98864.16;10150424;29;20055;-76
2023/01/18 21:48:46;;;;;;;12.23;6.72;;;;;;;-0.51;68.28;98867.84;10147300;29;20052;-77
2023/01/18 21:59:11;;;;;;;13.53;6.07;;;;;;;-0.52;67.93;98868.81;10141494;29;20054;-77
2023/01/18 22:09:52;;;;;;;12.38;6.40;;;;;;;-0.51;68.47;98876.59;10647300;23;20048;-77
2023/01/18 22:15:07;;;;;;;9.13;5.82;;;;;;;-0.76;69.30;98879.00;10148253;29;20048;-77
2023/01/18 22:20:11;;;;;;;8.13;4.68;;;;;;;-0.72;69.69;98872.59;10141454;29;20112;-77
2023/01/18 22:25:15;;;;;;;12.25;6.70;;;;;;;-0.51;69.00;98881.03;10217956;23;20076;-75
2023/01/18 22:30:18;;;;;;;12.73;7.13;;;;;;;-0.42;68.06;98898.94;10198969;29;20116;-75
2023/01/18 22:35:21;;;;;;;16.85;6.68;;;;;;;-0.45;69.22;98888.59;10198228;29;20044;-75
2023/01/18 22:40:25;;;;;;;9.88;5.22;;;;;;;-0.62;69.11;98894.84;10196529;29;20043;-75
2023/01/18 22:45:28;;;;;;;6.15;3.95;;;;;;;-0.52;69.13;98897.81;10201931;29;20132;-76
2023/01/18 22:50:30;;;;;;;12.68;5.47;;;;;;;-0.28;68.88;98909.53;10199123;29;20062;-76
2023/01/18 22:55:35;;;;;;;8.65;4.78;;;;;;;-0.27;68.78;98902.47;10194538;29;20048;-76
2023/01/18 23:00:37;;;;;;;11.25;6.43;;;;;;;-0.16;69.24;98889.47;10194529;29;20079;-76
2023/01/18 23:05:42;;;;;;;7.20;5.15;;;;;;;-0.63;70.50;98901.09;10189992;28;20491;-76
2023/01/18 23:10:46;;;;;;;13.90;5.78;;;;;;;-0.35;69.60;98904.72;10199672;29;20588;-76
2023/01/18 23:21:08;;;;;;;9.95;5.38;;;;;;;-0.29;69.89;98901.72;10199234;29;20052;-76
2023/01/18 23:26:13;;;;;;;10.93;6.72;;;;;;;-0.22;69.90;98907.47;10207233;29;20043;-76
2023/01/18 23:31:18;;;;;;;12.40;6.93;;;;;;;-0.48;70.51;98909.88;10192907;29;20052;-76
2023/01/18 23:36:22;;;;;;;7.82;4.72;;;;;;;-0.37;69.84;98902.16;10209086;29;20044;-76
2023/01/18 23:57:29;;;;;;;17.10;8.02;;;;;;;-0.17;70.17;98923.88;10200362;29;20040;-76
